Webb, Iowa
Current Conditions -  °F | °C
As of 5:53 AM on Saturday 25 Oct 2014 (Local Time) from KSPW Reporting Station
Clear Clear  
Wind Chill:   Ceiling: Unl
Heat Index:   Visibility: 10mi
Dew Point:   Wind: 3mph
Humidity: 79%   Direction: 310°NW
Pressure: 30.06"   Gusts: NA
Location:  42.95°N, 95.01°W
Report Text: KSPW 251053Z AUTO 31003KT 10SM CLR 07/03 A3006 RMK AO2 SLP180 T00670033 TSNO
Loading
Personal Weather Stations






























Interactive Weather Map
Tropical Storm Tracking
New forecast layout! Learn more

10-Day Weather Forecast

Advertisements
Track Severe Weather on mobile